createdAt,value
2018-11-01T00:14:09.670Z,6.10
2018-11-01T00:19:30.761Z,5.80
2018-11-01T00:22:13.394Z,7.07
2018-11-01T00:29:19.574Z,7.43
2018-11-01T00:31:47.676Z,5.70
2018-11-01T00:34:15.825Z,5.50
2018-11-01T00:36:43.926Z,6.50
2018-11-01T00:39:13.274Z,5.53
2018-11-01T00:41:41.424Z,6.50
2018-11-01T00:44:09.661Z,5.17
2018-11-01T00:46:37.755Z,5.03
2018-11-01T00:49:05.815Z,6.63
2018-11-01T00:51:34.194Z,5.80
2018-11-01T00:54:02.267Z,5.60
2018-11-01T00:56:30.536Z,5.60
2018-11-01T00:58:58.735Z,6.97
2018-11-01T01:01:26.843Z,6.27
2018-11-01T01:03:54.962Z,4.97
2018-11-01T01:06:23.090Z,4.60
2018-11-01T01:08:51.206Z,4.83
2018-11-01T01:11:19.290Z,6.50
2018-11-01T02:17:28.205Z,5.40
2018-11-01T03:25:55.567Z,8.17
2018-11-01T04:19:46.308Z,14.70
2018-11-01T04:28:08.419Z,16.43
2018-11-01T04:30:36.598Z,16.13
2018-11-01T04:33:04.954Z,15.47
2018-11-01T04:35:33.000Z,15.23
2018-11-01T04:38:01.114Z,19.83
2018-11-01T04:40:29.313Z,18.53
2018-11-01T04:42:57.510Z,19.13
2018-11-01T04:45:25.518Z,18.40
2018-11-01T04:47:53.821Z,17.37
2018-11-01T04:50:21.804Z,19.60
2018-11-01T04:52:49.908Z,19.77
2018-11-01T04:55:17.989Z,25.00
2018-11-01T04:57:46.121Z,17.93
2018-11-01T05:00:14.781Z,21.20
2018-11-01T05:02:43.445Z,20.27
2018-11-01T05:05:11.710Z,18.27
2018-11-01T05:07:39.802Z,18.63
2018-11-01T05:10:09.043Z,19.17
2018-11-01T05:12:37.498Z,18.20
2018-11-01T05:15:05.906Z,17.43
2018-11-01T05:17:33.997Z,16.63
2018-11-01T05:20:02.082Z,19.47
2018-11-01T05:31:27.729Z,19.83
2018-11-01T05:33:55.842Z,21.90
2018-11-01T05:36:23.923Z,18.73
2018-11-01T05:38:52.029Z,20.20
2018-11-01T05:41:20.132Z,21.40
2018-11-01T05:43:48.259Z,18.70
2018-11-01T05:46:16.330Z,20.43
2018-11-01T05:48:44.443Z,20.83
2018-11-01T05:51:12.580Z,20.83
2018-11-01T05:53:40.693Z,23.23
2018-11-01T05:56:08.789Z,21.33
2018-11-01T05:58:36.865Z,24.63
2018-11-01T06:01:06.955Z,20.30
2018-11-01T06:03:35.074Z,20.33
2018-11-01T06:06:03.177Z,22.23
2018-11-01T06:08:34.816Z,20.90
2018-11-01T06:11:02.928Z,21.33
2018-11-01T06:16:23.469Z,20.27
2018-11-01T06:18:51.569Z,20.90
2018-11-01T06:21:19.683Z,18.87
2018-11-01T06:27:03.370Z,19.13
2018-11-01T06:29:31.494Z,22.40
2018-11-01T06:31:59.595Z,21.27
2018-11-01T06:34:35.646Z,25.17
2018-11-01T06:37:03.771Z,25.27
2018-11-01T06:39:31.873Z,23.23
2018-11-01T06:41:59.943Z,27.20
2018-11-01T06:44:28.057Z,22.97
2018-11-01T06:46:56.174Z,25.83
2018-11-01T06:49:24.291Z,21.80
2018-11-01T06:51:52.386Z,22.63
2018-11-01T06:54:20.515Z,24.13
2018-11-01T06:56:48.655Z,23.60
2018-11-01T06:59:17.030Z,22.03
2018-11-01T07:01:44.962Z,20.27
2018-11-01T07:04:13.142Z,21.93
2018-11-01T07:06:41.275Z,18.07
2018-11-01T07:09:11.330Z,20.40
2018-11-01T07:11:39.495Z,19.77
2018-11-01T08:23:30.973Z,14.43
2018-11-01T08:25:59.076Z,12.57
2018-11-01T09:19:43.413Z,17.90
2018-11-01T12:14:49.220Z,22.17
2018-11-01T12:17:17.329Z,25.73
2018-11-01T13:13:47.256Z,28.57
2018-11-01T13:16:15.370Z,26.80
2018-11-01T13:18:43.480Z,31.37
2018-11-01T13:21:11.579Z,29.23
2018-11-01T13:23:39.682Z,31.93
2018-11-01T13:29:00.632Z,30.73
2018-11-01T13:31:28.704Z,30.70
2018-11-01T13:33:56.796Z,34.63
2018-11-01T13:36:24.894Z,34.93
2018-11-01T13:38:52.981Z,34.17
2018-11-01T13:41:21.179Z,35.57
2018-11-01T13:43:49.203Z,33.17
2018-11-01T13:46:17.309Z,33.77
2018-11-01T13:48:45.467Z,29.77
2018-11-01T13:51:13.547Z,32.57
2018-11-01T13:53:41.634Z,34.40
2018-11-01T13:56:09.783Z,31.83
2018-11-01T13:58:37.924Z,31.67
2018-11-01T14:01:06.542Z,32.97
2018-11-01T14:03:34.638Z,31.70
2018-11-01T14:06:02.814Z,31.73
2018-11-01T14:08:30.861Z,33.63
2018-11-01T14:10:58.992Z,30.63
2018-11-01T15:14:13.261Z,40.00
2018-11-01T15:16:41.359Z,42.30
2018-11-01T15:19:09.795Z,40.70
2018-11-01T15:21:38.074Z,39.73
2018-11-01T15:32:53.279Z,46.63
2018-11-01T15:35:21.347Z,41.27
2018-11-01T15:37:49.409Z,43.90
2018-11-01T15:40:17.520Z,47.07
2018-11-01T15:42:45.669Z,44.77
2018-11-01T15:45:14.474Z,37.93
2018-11-01T15:47:43.009Z,47.47
2018-11-01T15:50:12.211Z,41.97
2018-11-01T15:52:40.299Z,38.97
2018-11-01T15:55:08.756Z,38.17
2018-11-01T15:57:37.127Z,46.20
2018-11-01T16:00:05.533Z,38.93
2018-11-01T16:02:33.700Z,42.80
2018-11-01T16:05:01.781Z,41.07
2018-11-01T16:07:29.909Z,38.80
2018-11-01T16:09:58.056Z,43.70
2018-11-01T16:12:26.156Z,42.63
2018-11-01T16:29:36.384Z,46.50
2018-11-01T16:32:04.537Z,47.67
2018-11-01T16:34:32.709Z,49.10
2018-11-01T16:37:00.882Z,47.80
2018-11-01T16:39:28.898Z,46.70
2018-11-01T16:41:57.021Z,51.53
2018-11-01T16:44:25.118Z,52.43
2018-11-01T16:46:53.234Z,50.23
2018-11-01T16:49:21.315Z,53.13
2018-11-01T16:51:49.418Z,52.00
2018-11-01T16:54:17.581Z,47.43
2018-11-01T16:56:45.665Z,48.13
2018-11-01T16:59:13.792Z,47.93
2018-11-01T17:01:41.881Z,45.70
2018-11-01T17:04:09.966Z,46.13
2018-11-01T17:06:38.104Z,46.40
2018-11-01T17:09:08.566Z,44.67
2018-11-01T17:11:36.626Z,47.90
2018-11-01T17:14:04.807Z,48.20
2018-11-01T17:16:32.875Z,44.27
2018-11-01T18:29:11.597Z,49.73
2018-11-01T18:31:39.761Z,49.80
2018-11-01T18:34:07.881Z,45.43
2018-11-01T18:36:35.991Z,45.13
2018-11-01T18:39:05.168Z,48.87
2018-11-01T18:41:33.209Z,48.17
2018-11-01T18:44:01.298Z,47.27
2018-11-01T18:46:29.393Z,44.47
2018-11-01T18:48:57.463Z,53.60
2018-11-01T18:51:25.571Z,46.97
2018-11-01T18:53:53.702Z,46.90
2018-11-01T18:56:21.813Z,46.27
2018-11-01T18:58:49.926Z,49.40
2018-11-01T19:01:18.103Z,49.37
2018-11-01T19:03:46.198Z,48.03
2018-11-01T19:06:14.287Z,47.43
2018-11-01T19:08:42.439Z,47.43
2018-11-01T19:11:10.576Z,50.93
2018-11-01T19:13:38.670Z,51.03
2018-11-01T19:25:20.681Z,56.33
2018-11-01T20:10:10.671Z,62.80
2018-11-01T20:12:45.142Z,59.43
2018-11-01T20:15:13.250Z,63.47
2018-11-01T20:17:41.413Z,61.60
2018-11-01T20:20:10.988Z,59.27
2018-11-01T20:22:46.465Z,60.27
2018-11-01T20:25:14.746Z,58.00
2018-11-01T21:22:30.927Z,70.30
2018-11-01T21:25:04.656Z,68.10
2018-11-01T22:22:15.094Z,57.77
2018-11-01T23:22:17.671Z,43.40
2018-11-01T23:27:38.466Z,44.00
2018-11-01T23:30:06.741Z,46.00
2018-11-01T23:32:35.678Z,41.87
2018-11-01T23:35:03.839Z,48.23
2018-11-01T23:37:37.338Z,44.67
2018-11-01T23:40:10.982Z,44.80
2018-11-01T23:42:44.512Z,43.67
2018-11-01T23:45:17.987Z,50.23
2018-11-01T23:47:51.351Z,45.90
2018-11-01T23:50:20.931Z,43.63
2018-11-01T23:52:52.268Z,45.80
2018-11-01T23:55:20.382Z,41.43
2018-11-01T23:57:48.455Z,46.33
